Time;durP1;ratioP1;P1;durP2;ratioP2;P2;SDS_P1;SDS_P2;PMS_P1;PMS_P2;Temp;Humidity;BMP_temperature;BMP_pressure;BME280_temperature;BME280_humidity;BME280_pressure;Samples;Min_cycle;Max_cycle;Signal;HPM_P1;HPM_P2
2022/04/28 00:02:09;;;;;;;9.73;8.10;;;6.50;36.30;;;;;;5073910;28;20410;-75
2022/04/28 00:04:35;;;;;;;9.30;7.70;;;6.50;35.90;;;;;;5073977;28;20419;-74
2022/04/28 00:07:00;;;;;;;8.40;7.50;;;6.30;37.50;;;;;;5072840;28;20437;-74
2022/04/28 00:09:26;;;;;;;8.93;7.43;;;6.30;37.20;;;;;;5073528;28;20244;-75
2022/04/28 00:11:52;;;;;;;7.90;6.80;;;6.30;37.40;;;;;;5073017;28;20177;-75
2022/04/28 00:14:18;;;;;;;10.40;7.80;;;6.20;37.50;;;;;;5074148;28;20230;-73
2022/04/28 00:16:44;;;;;;;8.00;7.03;;;6.20;37.60;;;;;;5073734;28;20878;-75
2022/04/28 00:19:09;;;;;;;6.90;6.20;;;6.20;37.50;;;;;;5073514;28;20506;-74
2022/04/28 00:21:35;;;;;;;8.77;7.80;;;6.20;37.00;;;;;;5074234;28;20180;-74
2022/04/28 00:24:01;;;;;;;8.90;7.30;;;6.30;37.50;;;;;;5077567;28;20173;-75
2022/04/28 00:26:26;;;;;;;8.17;7.40;;;6.30;37.00;;;;;;5077981;28;20235;-73
2022/04/28 00:28:52;;;;;;;10.80;7.53;;;6.40;37.00;;;;;;5077762;28;20183;-74
2022/04/28 00:31:17;;;;;;;7.77;6.97;;;6.40;36.80;;;;;;5077841;28;20197;-74
2022/04/28 00:33:43;;;;;;;6.27;5.40;;;6.30;38.00;;;;;;5076033;28;20302;-74
2022/04/28 00:36:09;;;;;;;10.27;7.70;;;6.20;38.10;;;;;;5077144;28;20183;-74
2022/04/28 00:38:35;;;;;;;9.10;7.88;;;6.10;38.40;;;;;;5077116;28;20172;-74
2022/04/28 00:41:01;;;;;;;9.93;7.97;;;6.10;38.60;;;;;;5077087;28;20198;-74
2022/04/28 00:43:31;;;;;;;10.30;9.17;;;6.00;38.60;;;;;;5075412;28;20424;-74
2022/04/28 00:45:57;;;;;;;8.67;7.87;;;6.10;38.30;;;;;;5076492;28;20822;-75
2022/04/28 00:51:09;;;;;;;11.02;8.57;;;6.00;38.40;;;;;;5077264;28;20509;-74
2022/04/28 00:53:41;;;;;;;10.43;8.23;;;6.10;39.10;;;;;;5076880;28;20234;-74
2022/04/28 00:56:09;;;;;;;8.52;7.13;;;6.10;38.30;;;;;;5076779;28;20422;-75
2022/04/28 00:58:36;;;;;;;11.05;8.43;;;6.20;37.30;;;;;;5076590;28;20463;-74
2022/04/28 01:01:03;;;;;;;10.60;8.07;;;6.00;38.60;;;;;;5076250;28;20294;-75
2022/04/28 01:03:30;;;;;;;9.77;7.68;;;5.90;38.90;;;;;;5076208;28;20197;-75
2022/04/28 01:05:59;;;;;;;8.00;7.20;;;5.80;39.00;;;;;;5076667;28;20195;-75
2022/04/28 01:08:25;;;;;;;9.63;8.60;;;5.80;38.80;;;;;;5076456;28;20419;-76
2022/04/28 01:10:55;;;;;;;8.90;7.13;;;5.70;38.70;;;;;;5076530;28;20443;-75
2022/04/28 01:13:20;;;;;;;9.82;8.60;;;5.80;38.80;;;;;;5075732;28;20539;-76
2022/04/28 01:15:48;;;;;;;10.67;9.10;;;5.70;38.70;;;;;;5076054;28;20179;-75
2022/04/28 01:18:14;;;;;;;10.02;8.25;;;5.70;38.70;;;;;;5075772;28;20172;-75
2022/04/28 01:20:40;;;;;;;9.23;7.43;;;5.70;38.70;;;;;;5074154;28;20207;-75
2022/04/28 01:23:07;;;;;;;11.13;8.40;;;5.60;38.60;;;;;;5075437;28;20179;-75
2022/04/28 01:25:33;;;;;;;8.68;7.53;;;5.60;39.30;;;;;;5075625;28;20209;-75
2022/04/28 01:27:58;;;;;;;9.32;8.43;;;5.60;38.60;;;;;;5075311;28;20177;-75
2022/04/28 01:30:24;;;;;;;10.97;8.60;;;5.60;38.70;;;;;;5074918;28;20227;-75
2022/04/28 01:32:51;;;;;;;10.30;8.80;;;5.60;38.60;;;;;;5076327;28;20211;-75
2022/04/28 01:35:17;;;;;;;11.73;8.60;;;5.50;38.50;;;;;;5076210;28;20503;-75
2022/04/28 01:37:43;;;;;;;9.43;8.37;;;5.40;38.40;;;;;;5076407;28;20200;-75
2022/04/28 01:40:11;;;;;;;8.80;7.53;;;5.40;38.40;;;;;;5076068;28;20248;-75
2022/04/28 01:42:39;;;;;;;11.68;9.27;;;5.40;38.50;;;;;;5074390;28;20213;-75
2022/04/28 01:45:06;;;;;;;9.98;8.07;;;5.30;38.30;;;;;;5075314;28;20178;-75
2022/04/28 01:47:33;;;;;;;11.25;8.57;;;5.20;38.30;;;;;;5076360;28;20170;-75
2022/04/28 01:49:58;;;;;;;11.25;8.25;;;5.00;41.10;;;;;;5074616;28;20694;-74
2022/04/28 01:55:08;;;;;;;10.38;7.90;;;5.00;41.30;;;;;;5078972;28;20652;-74
2022/04/28 01:57:34;;;;;;;10.90;8.87;;;5.10;40.30;;;;;;5076241;28;20209;-75
2022/04/28 02:00:00;;;;;;;10.17;9.03;;;5.20;40.70;;;;;;5076173;28;20207;-75
2022/04/28 02:02:26;;;;;;;10.27;8.38;;;5.20;39.90;;;;;;5075865;28;20308;-75
2022/04/28 02:04:58;;;;;;;14.38;11.07;;;5.10;39.90;;;;;;5075663;28;20297;-75
2022/04/28 02:07:25;;;;;;;10.90;9.77;;;5.20;41.10;;;;;;5075895;28;20649;-75
2022/04/28 02:09:50;;;;;;;18.15;9.35;;;5.10;41.10;;;;;;5074527;28;20210;-75
2022/04/28 02:12:16;;;;;;;11.87;9.57;;;5.00;41.40;;;;;;5073914;28;20588;-75
2022/04/28 02:14:41;;;;;;;16.50;11.93;;;5.00;40.90;;;;;;5075155;28;20589;-75
2022/04/28 02:17:07;;;;;;;12.00;10.47;;;5.00;42.10;;;;;;5074618;28;20533;-75
2022/04/28 02:19:34;;;;;;;13.73;10.20;;;4.90;42.70;;;;;;5074548;28;20702;-75
2022/04/28 02:22:01;;;;;;;12.95;10.75;;;4.80;42.80;;;;;;5074553;28;20496;-75
2022/04/28 02:24:27;;;;;;;12.48;8.88;;;4.80;41.80;;;;;;5073220;28;20183;-74
2022/04/28 02:26:52;;;;;;;13.37;10.20;;;4.90;42.10;;;;;;5074764;28;20644;-74
2022/04/28 02:29:18;;;;;;;12.57;11.23;;;4.90;41.50;;;;;;5074652;28;20179;-74
2022/04/28 02:31:44;;;;;;;13.23;9.80;;;4.90;40.70;;;;;;5074591;28;20408;-74
2022/04/28 02:34:10;;;;;;;12.77;10.40;;;4.90;41.40;;;;;;5073971;28;20280;-75
2022/04/28 02:36:36;;;;;;;11.40;9.87;;;4.90;41.60;;;;;;5074733;28;20640;-74
2022/04/28 02:39:02;;;;;;;11.77;10.40;;;4.90;40.50;;;;;;5073305;28;20959;-73
2022/04/28 02:41:28;;;;;;;15.90;10.40;;;4.90;40.40;;;;;;5073275;28;20190;-74
2022/04/28 02:43:53;;;;;;;14.77;10.43;;;4.80;42.40;;;;;;5073308;28;20205;-74
2022/04/28 02:46:19;;;;;;;11.13;9.60;;;4.80;41.40;;;;;;5075082;28;20649;-74
2022/04/28 02:48:45;;;;;;;16.57;9.50;;;4.80;41.80;;;;;;5075160;28;20317;-73
2022/04/28 02:51:11;;;;;;;12.07;9.40;;;4.80;41.10;;;;;;5075057;28;20515;-74
2022/04/28 02:53:37;;;;;;;13.25;10.55;;;4.70;41.80;;;;;;5074869;28;20198;-74
2022/04/28 02:56:03;;;;;;;10.63;9.25;;;4.70;41.20;;;;;;5074910;28;20177;-74
2022/04/28 02:58:29;;;;;;;16.35;10.63;;;4.70;40.50;;;;;;5073541;28;20173;-74
2022/04/28 03:00:54;;;;;;;19.10;12.37;;;4.70;42.00;;;;;;5075044;28;20254;-73
2022/04/28 03:03:20;;;;;;;19.07;11.67;;;4.60;42.30;;;;;;5075351;28;20584;-75
2022/04/28 03:11:14;;;;;;;11.77;8.80;;;4.50;41.80;;;;;;5074640;28;20697;-74
2022/04/28 03:13:40;;;;;;;13.30;9.70;;;4.50;42.80;;;;;;5074179;28;20197;-74
2022/04/28 03:16:06;;;;;;;15.53;10.30;;;4.60;42.20;;;;;;5074476;28;20178;-74
2022/04/28 03:18:33;;;;;;;14.32;10.95;;;4.60;42.00;;;;;;5074683;28;20183;-74
2022/04/28 03:20:59;;;;;;;12.38;9.63;;;4.50;41.40;;;;;;5075074;28;20191;-73
2022/04/28 03:23:25;;;;;;;15.10;10.07;;;4.50;41.90;;;;;;5074012;28;20176;-74
2022/04/28 03:25:52;;;;;;;13.10;10.60;;;4.60;41.60;;;;;;5073349;28;20420;-74
2022/04/28 03:28:21;;;;;;;12.52;11.27;;;4.50;41.30;;;;;;5074240;28;20178;-74
2022/04/28 03:30:48;;;;;;;13.20;11.05;;;4.50;41.40;;;;;;5074258;28;20218;-74
2022/04/28 03:33:14;;;;;;;16.00;9.65;;;4.40;41.60;;;;;;5072950;28;20210;-74
2022/04/28 03:35:40;;;;;;;12.05;10.85;;;4.30;41.20;;;;;;5073258;28;20299;-74
2022/04/28 03:38:08;;;;;;;14.23;10.93;;;4.40;43.60;;;;;;5073085;28;20291;-75
2022/04/28 03:40:34;;;;;;;14.90;11.93;;;4.40;42.70;;;;;;5073828;28;20217;-75
2022/04/28 03:43:00;;;;;;;11.70;10.57;;;4.20;43.10;;;;;;5072915;28;20201;-74
2022/04/28 03:45:26;;;;;;;12.57;9.63;;;4.20;44.20;;;;;;5072629;28;20178;-75
2022/04/28 03:47:52;;;;;;;17.40;11.85;;;4.20;43.60;;;;;;5073834;28;20249;-74
2022/04/28 03:50:17;;;;;;;15.03;11.90;;;4.20;44.00;;;;;;5072981;28;20267;-74
2022/04/28 03:52:43;;;;;;;14.97;11.80;;;4.20;42.90;;;;;;5072822;28;20216;-74
2022/04/28 03:55:09;;;;;;;14.73;10.90;;;4.20;42.20;;;;;;5073805;28;20197;-74
2022/04/28 03:57:36;;;;;;;19.00;12.95;;;4.20;42.50;;;;;;5076387;28;20178;-74
2022/04/28 04:00:03;;;;;;;13.50;10.63;;;4.30;41.60;;;;;;5077743;28;20202;-74
2022/04/28 04:02:29;;;;;;;17.90;13.05;;;4.20;42.50;;;;;;5077712;28;20181;-75
2022/04/28 04:04:54;;;;;;;13.00;10.50;;;4.20;42.50;;;;;;5076371;28;20653;-75
2022/04/28 04:07:20;;;;;;;18.07;12.23;;;4.30;42.60;;;;;;5077025;28;20202;-76
2022/04/28 04:09:46;;;;;;;16.93;12.33;;;4.20;41.90;;;;;;5077201;28;20247;-75
2022/04/28 04:12:11;;;;;;;15.53;12.37;;;4.20;41.80;;;;;;5077538;28;20228;-75
2022/04/28 04:14:37;;;;;;;12.83;11.37;;;4.20;42.50;;;;;;5077613;28;20170;-74
2022/04/28 04:17:03;;;;;;;16.87;12.23;;;4.30;41.70;;;;;;5077889;28;20169;-75
2022/04/28 04:19:28;;;;;;;13.40;10.93;;;4.30;41.70;;;;;;5077288;28;20190;-73
2022/04/28 04:21:54;;;;;;;20.50;11.93;;;4.40;42.20;;;;;;5077844;28;20499;-74
2022/04/28 04:24:19;;;;;;;14.50;10.87;;;4.40;41.50;;;;;;5076792;28;20196;-74
2022/04/28 04:26:45;;;;;;;11.63;9.23;;;4.40;42.70;;;;;;5077611;28;20179;-74
2022/04/28 04:29:12;;;;;;;19.10;11.40;;;4.40;42.70;;;;;;5076674;28;20182;-74
2022/04/28 04:34:23;;;;;;;12.15;10.45;;;4.20;42.50;;;;;;5077048;28;20259;-74
2022/04/28 04:36:48;;;;;;;13.25;11.02;;;4.30;42.60;;;;;;5077207;28;20174;-76
2022/04/28 04:39:14;;;;;;;17.73;11.47;;;4.30;42.30;;;;;;5076737;28;20182;-75
2022/04/28 04:41:39;;;;;;;15.80;11.97;;;4.50;42.00;;;;;;5077105;28;20181;-75
2022/04/28 04:44:09;;;;;;;15.80;13.93;;;4.50;41.90;;;;;;5075213;28;20182;-75
2022/04/28 04:46:34;;;;;;;18.25;10.32;;;4.60;41.80;;;;;;5076812;28;20170;-74
2022/04/28 04:49:00;;;;;;;11.80;10.53;;;4.70;41.20;;;;;;5075964;28;20187;-75
2022/04/28 04:51:25;;;;;;;17.07;11.93;;;4.70;41.20;;;;;;5076822;28;20208;-74
2022/04/28 04:53:51;;;;;;;14.00;10.70;;;4.60;42.00;;;;;;5076706;28;20198;-75
2022/04/28 04:56:16;;;;;;;19.57;12.60;;;4.70;42.30;;;;;;5075801;28;20698;-75
2022/04/28 04:58:42;;;;;;;13.87;10.43;;;4.80;42.30;;;;;;5076423;28;20699;-75
2022/04/28 05:01:07;;;;;;;15.63;12.03;;;4.90;41.60;;;;;;5075921;28;20299;-75
2022/04/28 05:03:33;;;;;;;11.53;10.20;;;4.90;42.10;;;;;;5077402;28;20244;-74
2022/04/28 05:05:59;;;;;;;11.63;9.30;;;4.90;41.60;;;;;;5076808;28;20180;-75
2022/04/28 05:08:24;;;;;;;14.43;10.23;;;5.10;40.50;;;;;;5076148;28;20183;-77
2022/04/28 05:10:51;;;;;;;16.47;11.90;;;5.00;41.60;;;;;;5074841;28;20561;-75
2022/04/28 05:13:16;;;;;;;16.35;11.40;;;5.10;42.40;;;;;;5076201;28;20587;-76
2022/04/28 05:15:43;;;;;;;17.37;13.17;;;5.20;44.30;;;;;;5076988;28;20167;-76
2022/04/28 05:18:09;;;;;;;25.20;16.10;;;6.10;50.70;;;;;;5074796;28;20539;-75
2022/04/28 05:20:35;;;;;;;25.83;18.03;;;7.50;59.90;;;;;;5075252;28;20432;-75
2022/04/28 05:23:00;;;;;;;21.80;13.07;;;9.00;61.30;;;;;;5075497;28;20210;-75
2022/04/28 05:25:26;;;;;;;17.30;12.00;;;10.30;52.00;;;;;;5074769;28;20240;-75
2022/04/28 05:27:51;;;;;;;7.97;7.20;;;11.60;42.70;;;;;;5074718;28;20184;-75
2022/04/28 05:30:17;;;;;;;9.60;8.23;;;12.50;28.00;;;;;;5074539;28;20697;-75
2022/04/28 05:32:43;;;;;;;10.47;9.63;;;13.60;26.40;;;;;;5073087;28;20232;-76
2022/04/28 05:35:08;;;;;;;16.67;12.80;;;14.60;21.90;;;;;;5074886;28;20170;-74
2022/04/28 05:37:34;;;;;;;15.87;14.37;;;15.40;17.80;;;;;;5074415;28;20185;-76
2022/04/28 05:40:00;;;;;;;17.13;16.03;;;16.20;18.10;;;;;;5074421;28;20649;-75
2022/04/28 05:45:41;;;;;;;16.07;15.03;;;17.00;15.40;;;;;;5074470;28;20440;-75
2022/04/28 05:47:55;;;;;;;17.67;16.67;;;18.00;12.30;;;;;;5076415;28;20720;-76
2022/04/28 05:50:21;;;;;;;18.60;17.50;;;18.60;12.90;;;;;;5077903;28;20428;-76
2022/04/28 05:52:46;;;;;;;19.40;17.60;;;19.20;9.50;;;;;;5074678;28;20210;-76
2022/04/28 05:55:12;;;;;;;19.40;18.40;;;19.70;10.50;;;;;;5073079;28;20559;-76
2022/04/28 05:57:37;;;;;;;21.73;19.93;;;20.10;7.60;;;;;;5075035;28;20627;-76
2022/04/28 06:00:03;;;;;;;21.27;19.90;;;19.80;7.40;;;;;;5073142;28;20217;-76
2022/04/28 06:02:29;;;;;;;22.50;21.20;;;20.10;8.70;;;;;;5074698;28;20170;-76
2022/04/28 06:04:55;;;;;;;20.33;19.03;;;20.30;7.10;;;;;;5073102;28;20420;-76
2022/04/28 06:07:20;;;;;;;19.93;18.90;;;20.50;7.90;;;;;;5074280;28;20228;-76
2022/04/28 06:09:46;;;;;;;19.73;18.60;;;20.80;7.60;;;;;;5073883;28;20698;-75
2022/04/28 06:12:11;;;;;;;21.87;20.47;;;19.70;6.70;;;;;;5074251;28;20556;-76
2022/04/28 06:14:38;;;;;;;20.83;19.60;;;19.10;7.00;;;;;;5073996;28;20209;-75
2022/04/28 06:17:03;;;;;;;19.90;18.50;;;18.60;7.70;;;;;;5073646;28;20184;-75
2022/04/28 06:19:29;;;;;;;20.77;19.47;;;17.70;9.70;;;;;;5072389;28;20428;-76
2022/04/28 06:21:54;;;;;;;20.37;19.07;;;17.70;9.60;;;;;;5073449;28;20170;-76
2022/04/28 06:24:20;;;;;;;19.77;18.50;;;17.00;10.30;;;;;;5074236;28;20181;-76
2022/04/28 06:26:45;;;;;;;19.63;18.43;;;16.40;11.20;;;;;;5072294;28;20189;-76
2022/04/28 06:29:11;;;;;;;19.23;17.73;;;15.90;12.10;;;;;;5073270;28;20178;-76
2022/04/28 06:31:37;;;;;;;18.57;17.27;;;15.40;13.30;;;;;;5072106;28;20178;-75
2022/04/28 06:34:02;;;;;;;19.50;18.30;;;14.90;13.40;;;;;;5073396;28;20213;-75
2022/04/28 06:36:28;;;;;;;18.30;17.07;;;14.70;14.60;;;;;;5073131;28;20177;-76
2022/04/28 06:38:53;;;;;;;17.97;16.60;;;15.00;16.00;;;;;;5073175;28;20181;-76
2022/04/28 06:41:19;;;;;;;17.73;16.67;;;15.50;13.50;;;;;;5071869;28;20225;-76
2022/04/28 06:43:44;;;;;;;17.90;16.60;;;16.60;13.40;;;;;;5071755;28;20186;-76
2022/04/28 06:46:13;;;;;;;19.43;18.13;;;17.80;11.80;;;;;;5072164;28;20184;-77
2022/04/28 06:48:38;;;;;;;21.23;19.83;;;19.00;9.60;;;;;;5071499;28;20174;-76
2022/04/28 06:51:04;;;;;;;19.57;18.30;;;19.80;7.90;;;;;;5073491;28;20941;-76
2022/04/28 06:53:30;;;;;;;20.77;19.40;;;20.70;8.10;;;;;;5073227;28;20212;-76
2022/04/28 06:55:55;;;;;;;22.47;20.93;;;21.20;6.80;;;;;;5073109;28;20174;-76
2022/04/28 06:58:21;;;;;;;21.67;20.33;;;20.70;4.80;;;;;;5071536;28;20197;-76
2022/04/28 07:00:49;;;;;;;21.43;19.90;;;21.30;6.20;;;;;;5072694;28;20691;-76
2022/04/28 07:03:14;;;;;;;21.10;19.87;;;22.00;5.00;;;;;;5072969;28;20439;-76
2022/04/28 07:05:40;;;;;;;20.07;18.87;;;22.10;6.90;;;;;;5073028;28;20415;-77
2022/04/28 07:08:06;;;;;;;21.97;20.67;;;22.50;4.70;;;;;;5072941;28;20180;-77
2022/04/28 07:10:31;;;;;;;19.40;18.20;;;22.50;4.60;;;;;;5072883;28;20251;-77
2022/04/28 07:12:57;;;;;;;22.17;20.23;;;22.90;4.20;;;;;;5071931;28;20468;-77
2022/04/28 07:15:23;;;;;;;20.60;19.00;;;23.20;4.10;;;;;;5073506;28;20364;-76
2022/04/28 07:17:48;;;;;;;19.00;18.07;;;22.70;4.80;;;;;;5073179;28;20186;-78
2022/04/28 07:20:14;;;;;;;19.77;18.33;;;22.20;2.60;;;;;;5073459;28;20205;-77
2022/04/28 07:22:40;;;;;;;20.47;19.17;;;20.90;5.90;;;;;;5073339;28;20197;-76
2022/04/28 07:25:06;;;;;;;18.93;17.93;;;21.50;4.10;;;;;;5073122;28;20174;-76
2022/04/28 07:27:31;;;;;;;18.20;17.17;;;21.50;4.40;;;;;;5072393;28;20412;-77
2022/04/28 07:29:57;;;;;;;16.83;16.03;;;22.10;5.40;;;;;;5072191;28;20520;-76
2022/04/28 07:32:23;;;;;;;18.20;17.17;;;22.30;3.90;;;;;;5071040;28;20188;-77
2022/04/28 07:34:48;;;;;;;18.10;17.20;;;21.90;4.40;;;;;;5071289;28;20541;-76
2022/04/28 07:37:14;;;;;;;19.90;18.47;;;22.50;4.70;;;;;;5072405;28;20201;-76
2022/04/28 07:39:39;;;;;;;20.57;19.37;;;23.10;4.20;;;;;;5072454;28;20658;-76
2022/04/28 07:42:05;;;;;;;18.57;17.43;;;23.40;4.10;;;;;;5072611;28;20550;-76
2022/04/28 07:44:30;;;;;;;17.67;16.67;;;23.30;3.50;;;;;;5072555;28;20306;-77
2022/04/28 07:46:56;;;;;;;17.00;16.10;;;23.70;3.80;;;;;;5073086;28;20300;-76
2022/04/28 07:49:22;;;;;;;17.00;16.17;;;22.30;2.60;;;;;;5072491;28;20264;-77
2022/04/28 07:51:47;;;;;;;17.60;16.70;;;20.60;5.80;;;;;;5072951;28;20189;-76
2022/04/28 07:54:17;;;;;;;16.57;15.70;;;20.10;7.60;;;;;;5072688;28;20189;-76
2022/04/28 07:56:44;;;;;;;17.50;16.60;;;19.40;7.10;;;;;;5070838;28;20638;-75
2022/04/28 07:59:10;;;;;;;18.80;17.27;;;18.80;8.80;;;;;;5071907;28;20417;-76
2022/04/28 08:01:36;;;;;;;17.30;16.40;;;19.40;8.40;;;;;;5072385;28;20428;-74
2022/04/28 08:04:01;;;;;;;18.53;17.43;;;18.90;8.10;;;;;;5071767;28;20559;-74
2022/04/28 08:06:27;;;;;;;17.17;16.17;;;19.60;8.00;;;;;;5070855;28;20185;-76
2022/04/28 08:08:53;;;;;;;19.03;17.93;;;18.60;8.10;;;;;;5070253;28;20166;-75
2022/04/28 08:11:18;;;;;;;14.83;14.23;;;17.90;9.80;;;;;;5071762;28;20251;-75
2022/04/28 08:13:44;;;;;;;16.20;15.33;;;17.80;6.30;;;;;;5071732;28;20174;-75
2022/04/28 08:16:09;;;;;;;17.20;15.90;;;18.40;3.30;;;;;;5071666;28;20178;-77
2022/04/28 08:18:37;;;;;;;16.17;14.90;;;18.70;1.60;;;;;;5071487;28;20722;-74
2022/04/28 08:21:03;;;;;;;15.33;14.53;;;18.60;3.50;;;;;;5070355;28;20706;-74
2022/04/28 08:23:29;;;;;;;15.63;14.93;;;18.70;1.00;;;;;;5071430;28;20482;-74
2022/04/28 08:25:55;;;;;;;16.30;15.57;;;18.70;1.00;;;;;;5070156;28;20416;-75
2022/04/28 08:28:21;;;;;;;16.77;15.97;;;18.70;4.70;;;;;;5071369;28;20928;-74
2022/04/28 08:30:47;;;;;;;15.33;14.40;;;18.30;6.40;;;;;;5071329;28;20197;-74
2022/04/28 08:33:12;;;;;;;14.70;14.00;;;17.60;8.20;;;;;;5070173;28;20424;-74
2022/04/28 08:35:38;;;;;;;16.40;15.60;;;17.50;7.80;;;;;;5071625;28;20659;-74
2022/04/28 08:38:03;;;;;;;16.23;15.53;;;18.00;6.90;;;;;;5071392;28;20174;-76
2022/04/28 08:40:29;;;;;;;17.20;16.20;;;18.30;6.40;;;;;;5071669;28;20607;-75
2022/04/28 08:42:58;;;;;;;16.13;15.00;;;17.70;8.20;;;;;;5072559;28;20201;-75
2022/04/28 08:45:28;;;;;;;15.03;14.40;;;17.70;2.90;;;;;;5073807;28;20178;-74
2022/04/28 08:47:58;;;;;;;15.67;14.97;;;17.50;1.00;;;;;;5074842;28;20409;-74
2022/04/28 08:50:24;;;;;;;18.77;15.80;;;17.40;1.00;;;;;;5075237;28;20427;-74
2022/04/28 08:52:53;;;;;;;17.10;16.30;;;17.10;1.00;;;;;;5073655;28;20506;-75
2022/04/28 08:55:20;;;;;;;15.20;14.60;;;16.60;2.00;;;;;;5074994;28;20529;-76
2022/04/28 08:57:45;;;;;;;15.50;14.70;;;16.20;1.10;;;;;;5074759;28;20416;-77
2022/04/28 09:00:11;;;;;;;15.57;14.77;;;16.20;1.10;;;;;;5074657;28;20512;-76
2022/04/28 09:02:39;;;;;;;16.00;15.30;;;16.40;1.00;;;;;;5074663;28;20692;-77
2022/04/28 09:05:07;;;;;;;15.50;14.90;;;16.30;1.00;;;;;;5074912;28;20435;-75
2022/04/28 09:07:44;;;;;;;14.57;13.97;;;16.10;1.00;;;;;;5075648;28;20416;-75
2022/04/28 09:10:30;;;;;;;16.30;15.60;;;16.20;1.00;;;;;;5076931;28;20887;-77
2022/04/28 09:14:09;;;;;;;15.83;15.03;;;16.20;1.00;;;;;;5075301;28;20419;-76
2022/04/28 09:15:50;;;;;;;15.77;14.97;;;15.80;1.00;;;;;;5074549;28;20440;-77
2022/04/28 09:18:16;;;;;;;16.40;15.50;;;15.90;1.00;;;;;;5074471;28;20995;-75
2022/04/28 09:20:43;;;;;;;15.70;14.73;;;16.10;1.00;;;;;;5074436;28;20470;-75
2022/04/28 09:23:10;;;;;;;15.80;15.10;;;16.20;1.00;;;;;;5073251;28;20459;-75
2022/04/28 09:25:38;;;;;;;14.50;13.80;;;16.30;1.00;;;;;;5074532;28;20439;-75
2022/04/28 09:28:03;;;;;;;15.03;14.33;;;16.30;1.00;;;;;;5074171;28;20411;-74
2022/04/28 09:30:49;;;;;;;16.70;15.80;;;16.20;1.00;;;;;;5074236;28;20432;-74
2022/04/28 09:33:18;;;;;;;15.40;14.80;;;16.30;1.00;;;;;;5074454;28;20412;-75
2022/04/28 09:35:50;;;;;;;15.97;15.17;;;16.30;1.00;;;;;;5074278;28;20411;-74
2022/04/28 09:38:16;;;;;;;14.73;14.07;;;16.40;1.00;;;;;;5073903;28;20400;-74
2022/04/28 09:43:32;;;;;;;14.40;13.80;;;16.30;1.00;;;;;;5074800;28;21025;-76
2022/04/28 09:45:59;;;;;;;15.53;14.83;;;16.30;1.00;;;;;;5074412;28;20405;-75
2022/04/28 09:48:30;;;;;;;14.83;14.23;;;16.10;1.00;;;;;;5072559;28;20990;-76
2022/04/28 09:51:00;;;;;;;16.67;15.80;;;16.10;1.00;;;;;;5073102;28;20967;-74
2022/04/28 09:53:33;;;;;;;15.87;15.10;;;16.10;1.00;;;;;;5073938;28;20929;-74
2022/04/28 09:56:01;;;;;;;16.73;15.70;;;16.10;1.00;;;;;;5074267;28;20490;-75
2022/04/28 09:58:27;;;;;;;16.43;15.43;;;16.20;1.00;;;;;;5073713;28;20408;-74
2022/04/28 10:01:00;;;;;;;15.43;14.63;;;16.20;1.00;;;;;;5073813;28;20458;-75
2022/04/28 10:03:27;;;;;;;16.70;15.90;;;16.30;1.00;;;;;;5073732;28;20869;-75
2022/04/28 10:05:55;;;;;;;15.20;14.40;;;16.20;1.00;;;;;;5073746;28;21064;-76
2022/04/28 10:08:21;;;;;;;16.53;15.50;;;16.30;1.00;;;;;;5073843;28;20685;-74
2022/04/28 10:10:50;;;;;;;15.20;14.50;;;16.50;1.00;;;;;;5072392;28;20435;-73
2022/04/28 10:13:16;;;;;;;15.13;14.53;;;16.50;1.00;;;;;;5073577;28;20415;-75
2022/04/28 10:15:42;;;;;;;16.00;15.10;;;16.40;1.00;;;;;;5073463;28;20516;-74
2022/04/28 10:18:14;;;;;;;15.50;14.70;;;16.50;1.00;;;;;;5073271;28;20487;-76
2022/04/28 10:20:45;;;;;;;15.00;14.33;;;16.60;1.00;;;;;;5073443;28;20436;-76
2022/04/28 10:23:13;;;;;;;16.10;15.20;;;16.60;1.00;;;;;;5073255;28;20818;-75
2022/04/28 10:34:16;;;;;;;16.97;16.10;;;16.70;1.00;;;;;;5073238;28;20400;-74
2022/04/28 10:36:53;;;;;;;16.17;15.47;;;16.90;1.00;;;;;;5073092;28;20419;-75
2022/04/28 10:39:43;;;;;;;16.43;15.63;;;17.10;1.00;;;;;;5071459;28;20473;-74
2022/04/28 10:42:20;;;;;;;15.70;15.10;;;17.30;1.00;;;;;;5072801;28;20408;-75
2022/04/28 10:44:57;;;;;;;16.63;15.83;;;17.40;1.00;;;;;;5073050;28;20466;-75
2022/04/28 10:47:43;;;;;;;15.83;15.17;;;17.50;1.00;;;;;;5072836;28;20605;-75
2022/04/28 10:50:21;;;;;;;15.70;15.00;;;17.20;1.00;;;;;;5072615;28;20969;-74
2022/04/28 10:52:54;;;;;;;16.30;15.30;;;17.10;1.00;;;;;;5073291;28;20773;-75
2022/04/28 10:55:21;;;;;;;14.77;14.17;;;17.20;1.00;;;;;;5072865;28;20423;-76
2022/04/28 10:57:47;;;;;;;15.33;14.73;;;17.30;1.00;;;;;;5072517;28;20412;-76
2022/04/28 11:00:31;;;;;;;16.07;15.30;;;17.40;1.00;;;;;;5072671;28;20458;-75
2022/04/28 11:02:59;;;;;;;16.53;15.73;;;17.50;1.00;;;;;;5072711;28;20347;-75
2022/04/28 11:05:33;;;;;;;15.80;15.00;;;17.40;1.00;;;;;;5072187;28;20404;-77
2022/04/28 11:08:10;;;;;;;16.63;15.70;;;17.50;1.00;;;;;;5072528;28;20423;-74
2022/04/28 11:11:07;;;;;;;16.27;15.57;;;17.70;1.00;;;;;;5072536;28;20496;-75
2022/04/28 11:13:36;;;;;;;15.73;15.10;;;17.70;1.00;;;;;;5073147;28;20411;-75
2022/04/28 11:16:02;;;;;;;15.27;14.57;;;17.60;1.00;;;;;;5071629;28;21019;-74
2022/04/28 11:18:28;;;;;;;15.30;14.60;;;17.60;1.00;;;;;;5072202;28;20436;-74
2022/04/28 11:21:01;;;;;;;15.40;14.70;;;17.50;1.00;;;;;;5072400;28;20186;-75
2022/04/28 11:23:34;;;;;;;16.53;15.73;;;17.30;1.00;;;;;;5072361;28;20478;-75
2022/04/28 11:26:02;;;;;;;16.30;15.50;;;17.20;1.00;;;;;;5072425;28;20766;-75
2022/04/28 11:28:29;;;;;;;16.50;15.67;;;17.40;1.00;;;;;;5071853;28;20418;-75
2022/04/28 11:30:55;;;;;;;16.30;15.50;;;17.50;1.00;;;;;;5071997;28;20945;-75
2022/04/28 11:33:21;;;;;;;15.40;14.70;;;17.50;1.00;;;;;;5072293;28;20412;-75
2022/04/28 11:35:53;;;;;;;15.70;15.00;;;17.30;1.00;;;;;;5072450;28;20416;-76
2022/04/28 11:38:32;;;;;;;15.57;14.87;;;17.30;1.00;;;;;;5071883;28;20174;-74
2022/04/28 11:41:03;;;;;;;14.63;14.03;;;17.40;1.00;;;;;;5072276;28;20439;-76
2022/04/28 11:43:34;;;;;;;16.30;15.60;;;17.60;1.00;;;;;;5071887;28;20460;-75
2022/04/28 11:46:00;;;;;;;16.00;15.10;;;17.50;1.00;;;;;;5070653;28;20443;-77
2022/04/28 11:48:30;;;;;;;15.70;15.00;;;17.40;1.00;;;;;;5070552;28;20423;-75
2022/04/28 11:51:04;;;;;;;15.13;14.30;;;17.50;1.00;;;;;;5071934;28;20485;-75
2022/04/28 11:53:44;;;;;;;15.50;14.73;;;17.40;1.00;;;;;;5072070;28;20521;-75
2022/04/28 11:56:16;;;;;;;15.90;15.00;;;17.40;1.00;;;;;;5072191;28;20439;-76
2022/04/28 11:58:42;;;;;;;14.73;14.13;;;17.60;1.00;;;;;;5071729;28;20416;-76
2022/04/28 12:01:11;;;;;;;14.83;14.23;;;17.60;1.00;;;;;;5070898;28;20513;-75
2022/04/28 12:03:36;;;;;;;15.30;14.50;;;17.70;1.00;;;;;;5072208;28;20273;-75
2022/04/28 12:06:04;;;;;;;16.50;15.70;;;17.70;1.00;;;;;;5072470;28;20481;-76
2022/04/28 12:08:29;;;;;;;15.53;14.90;;;17.70;1.00;;;;;;5071889;28;20193;-74
2022/04/28 12:19:19;;;;;;;15.23;14.53;;;17.40;1.00;;;;;;5072498;28;20462;-74
2022/04/28 12:19:20;;;;;;;16.20;15.50;;;17.40;1.00;;;;;;5077256;28;20515;-75
2022/04/28 12:21:46;;;;;;;16.30;15.50;;;17.50;1.00;;;;;;5075159;28;20419;-74
2022/04/28 12:24:22;;;;;;;16.77;15.73;;;17.70;1.00;;;;;;5075720;28;20501;-75
2022/04/28 12:26:49;;;;;;;16.57;15.77;;;17.80;1.00;;;;;;5075890;28;20192;-75
2022/04/28 12:29:16;;;;;;;15.23;14.53;;;18.00;1.00;;;;;;5078084;28;20409;-75
2022/04/28 12:31:43;;;;;;;15.97;15.17;;;18.10;1.00;;;;;;5076628;28;20407;-74
2022/04/28 12:34:25;;;;;;;14.80;14.10;;;18.20;1.00;;;;;;5075578;28;20443;-75
2022/04/28 12:36:57;;;;;;;15.10;14.40;;;18.40;1.00;;;;;;5076113;28;20423;-76
2022/04/28 12:39:22;;;;;;;15.10;14.40;;;18.50;1.00;;;;;;5075609;28;20404;-75
2022/04/28 12:41:50;;;;;;;15.80;15.20;;;18.60;1.00;;;;;;5076343;28;20420;-75
2022/04/28 12:44:16;;;;;;;16.70;15.60;;;18.60;1.00;;;;;;5076016;28;20464;-75
2022/04/28 12:46:45;;;;;;;15.80;15.10;;;18.70;1.00;;;;;;5075922;28;20410;-76
2022/04/28 12:49:16;;;;;;;16.13;15.43;;;18.70;1.00;;;;;;5076494;28;20771;-74
2022/04/28 12:51:51;;;;;;;16.30;15.50;;;18.50;1.00;;;;;;5075311;28;20412;-76
2022/04/28 12:54:35;;;;;;;15.50;14.70;;;18.50;1.00;;;;;;5075925;28;20411;-74
2022/04/28 12:57:06;;;;;;;16.20;15.50;;;18.20;1.00;;;;;;5075576;28;20415;-75
2022/04/28 12:59:36;;;;;;;15.97;15.33;;;18.30;1.00;;;;;;5075163;28;20431;-75
2022/04/28 13:02:03;;;;;;;14.93;14.33;;;18.30;1.00;;;;;;5075605;28;20424;-75
2022/04/28 13:04:28;;;;;;;16.37;15.53;;;18.50;1.00;;;;;;5073591;28;20838;-75
2022/04/28 13:06:55;;;;;;;16.07;15.37;;;18.70;1.00;;;;;;5074765;28;20409;-76
2022/04/28 13:09:22;;;;;;;15.53;14.80;;;18.80;1.00;;;;;;5075321;28;20645;-75
2022/04/28 13:11:49;;;;;;;16.10;15.40;;;19.00;1.00;;;;;;5075407;28;20404;-75
2022/04/28 13:14:17;;;;;;;16.20;15.43;;;19.00;1.00;;;;;;5073537;28;20424;-76